sensor_id;sensor_type;location;lat;lon;timestamp;P1;durP1;ratioP1;P2;durP2;ratioP2
19905;SDS011;10115;50.906;4.438;2023-02-12T00:00:38;8.33;;;7.63;;
19905;SDS011;10115;50.906;4.438;2023-02-12T00:03:05;10.70;;;9.77;;
19905;SDS011;10115;50.906;4.438;2023-02-12T00:05:31;10.20;;;9.20;;
19905;SDS011;10115;50.906;4.438;2023-02-12T00:07:57;10.50;;;9.60;;
19905;SDS011;10115;50.906;4.438;2023-02-12T00:10:26;12.80;;;9.77;;
19905;SDS011;10115;50.906;4.438;2023-02-12T00:12:55;12.20;;;10.57;;
19905;SDS011;10115;50.906;4.438;2023-02-12T00:15:20;10.23;;;9.33;;
19905;SDS011;10115;50.906;4.438;2023-02-12T00:17:46;11.93;;;10.50;;
19905;SDS011;10115;50.906;4.438;2023-02-12T00:20:14;11.60;;;10.40;;
19905;SDS011;10115;50.906;4.438;2023-02-12T00:22:40;12.80;;;10.90;;
19905;SDS011;10115;50.906;4.438;2023-02-12T00:25:06;12.10;;;10.80;;
19905;SDS011;10115;50.906;4.438;2023-02-12T00:27:33;12.93;;;10.40;;
19905;SDS011;10115;50.906;4.438;2023-02-12T00:29:59;13.10;;;10.73;;
19905;SDS011;10115;50.906;4.438;2023-02-12T00:32:25;11.77;;;10.53;;
19905;SDS011;10115;50.906;4.438;2023-02-12T00:34:56;11.63;;;10.43;;
19905;SDS011;10115;50.906;4.438;2023-02-12T00:37:21;11.37;;;10.23;;
19905;SDS011;10115;50.906;4.438;2023-02-12T00:39:47;17.90;;;11.80;;
19905;SDS011;10115;50.906;4.438;2023-02-12T00:42:12;13.13;;;10.63;;
19905;SDS011;10115;50.906;4.438;2023-02-12T00:44:38;12.17;;;10.90;;
19905;SDS011;10115;50.906;4.438;2023-02-12T00:47:04;12.73;;;11.43;;
19905;SDS011;10115;50.906;4.438;2023-02-12T00:49:30;16.60;;;11.50;;
19905;SDS011;10115;50.906;4.438;2023-02-12T00:51:59;17.73;;;11.00;;
19905;SDS011;10115;50.906;4.438;2023-02-12T00:54:26;12.50;;;10.57;;
19905;SDS011;10115;50.906;4.438;2023-02-12T00:56:52;16.50;;;10.77;;
19905;SDS011;10115;50.906;4.438;2023-02-12T00:59:20;11.37;;;10.33;;
19905;SDS011;10115;50.906;4.438;2023-02-12T01:01:46;11.40;;;10.17;;
19905;SDS011;10115;50.906;4.438;2023-02-12T01:04:12;13.33;;;10.93;;
19905;SDS011;10115;50.906;4.438;2023-02-12T01:06:37;15.30;;;11.70;;
19905;SDS011;10115;50.906;4.438;2023-02-12T01:09:03;21.40;;;12.00;;
19905;SDS011;10115;50.906;4.438;2023-02-12T01:11:29;13.10;;;11.80;;
19905;SDS011;10115;50.906;4.438;2023-02-12T01:13:54;17.30;;;12.47;;
19905;SDS011;10115;50.906;4.438;2023-02-12T01:16:21;12.03;;;10.83;;
19905;SDS011;10115;50.906;4.438;2023-02-12T01:18:48;20.53;;;12.17;;
19905;SDS011;10115;50.906;4.438;2023-02-12T01:21:16;12.50;;;10.13;;
19905;SDS011;10115;50.906;4.438;2023-02-12T01:23:43;12.30;;;11.13;;
19905;SDS011;10115;50.906;4.438;2023-02-12T01:26:10;16.80;;;12.00;;
19905;SDS011;10115;50.906;4.438;2023-02-12T01:28:40;16.27;;;13.07;;
19905;SDS011;10115;50.906;4.438;2023-02-12T01:31:10;15.77;;;11.50;;
19905;SDS011;10115;50.906;4.438;2023-02-12T01:33:38;14.33;;;11.80;;
19905;SDS011;10115;50.906;4.438;2023-02-12T01:36:04;14.20;;;11.13;;
19905;SDS011;10115;50.906;4.438;2023-02-12T01:38:30;14.87;;;11.80;;
19905;SDS011;10115;50.906;4.438;2023-02-12T01:41:06;13.13;;;10.30;;
19905;SDS011;10115;50.906;4.438;2023-02-12T01:43:35;11.87;;;10.67;;
19905;SDS011;10115;50.906;4.438;2023-02-12T01:46:01;13.50;;;11.47;;
19905;SDS011;10115;50.906;4.438;2023-02-12T01:48:29;12.40;;;10.77;;
19905;SDS011;10115;50.906;4.438;2023-02-12T01:50:59;13.33;;;11.63;;
19905;SDS011;10115;50.906;4.438;2023-02-12T01:53:28;12.57;;;11.27;;
19905;SDS011;10115;50.906;4.438;2023-02-12T01:56:02;17.00;;;12.67;;
19905;SDS011;10115;50.906;4.438;2023-02-12T01:58:34;16.77;;;11.43;;
19905;SDS011;10115;50.906;4.438;2023-02-12T02:01:02;16.13;;;10.67;;
19905;SDS011;10115;50.906;4.438;2023-02-12T02:03:32;14.00;;;11.90;;
19905;SDS011;10115;50.906;4.438;2023-02-12T02:06:01;12.97;;;11.67;;
19905;SDS011;10115;50.906;4.438;2023-02-12T02:08:38;15.67;;;11.80;;
19905;SDS011;10115;50.906;4.438;2023-02-12T02:11:04;20.43;;;12.93;;
19905;SDS011;10115;50.906;4.438;2023-02-12T02:13:50;20.13;;;13.03;;
19905;SDS011;10115;50.906;4.438;2023-02-12T02:16:35;16.73;;;13.27;;
19905;SDS011;10115;50.906;4.438;2023-02-12T02:19:03;14.00;;;12.57;;
19905;SDS011;10115;50.906;4.438;2023-02-12T02:21:55;17.93;;;13.00;;
19905;SDS011;10115;50.906;4.438;2023-02-12T02:25:03;14.20;;;12.10;;
19905;SDS011;10115;50.906;4.438;2023-02-12T02:27:39;15.20;;;12.57;;
19905;SDS011;10115;50.906;4.438;2023-02-12T02:30:28;15.60;;;11.87;;
19905;SDS011;10115;50.906;4.438;2023-02-12T02:40:55;13.20;;;11.70;;
19905;SDS011;10115;50.906;4.438;2023-02-12T02:43:37;18.40;;;12.40;;
19905;SDS011;10115;50.906;4.438;2023-02-12T02:46:09;14.67;;;13.13;;
19905;SDS011;10115;50.906;4.438;2023-02-12T02:48:39;16.80;;;12.63;;
19905;SDS011;10115;50.906;4.438;2023-02-12T02:51:15;16.63;;;13.47;;
19905;SDS011;10115;50.906;4.438;2023-02-12T02:56:38;12.93;;;11.57;;
19905;SDS011;10115;50.906;4.438;2023-02-12T02:59:10;16.90;;;12.93;;
19905;SDS011;10115;50.906;4.438;2023-02-12T03:01:41;21.90;;;12.60;;
19905;SDS011;10115;50.906;4.438;2023-02-12T03:04:20;18.40;;;12.37;;
19905;SDS011;10115;50.906;4.438;2023-02-12T03:06:58;15.93;;;11.90;;
19905;SDS011;10115;50.906;4.438;2023-02-12T03:09:33;15.03;;;12.47;;
19905;SDS011;10115;50.906;4.438;2023-02-12T03:12:30;15.10;;;12.47;;
19905;SDS011;10115;50.906;4.438;2023-02-12T03:17:50;15.17;;;13.07;;
19905;SDS011;10115;50.906;4.438;2023-02-12T03:20:17;16.73;;;13.13;;
19905;SDS011;10115;50.906;4.438;2023-02-12T03:22:48;15.33;;;12.10;;
19905;SDS011;10115;50.906;4.438;2023-02-12T03:25:24;18.37;;;14.87;;
19905;SDS011;10115;50.906;4.438;2023-02-12T03:30:29;14.80;;;12.13;;
19905;SDS011;10115;50.906;4.438;2023-02-12T03:33:21;11.87;;;10.63;;
19905;SDS011;10115;50.906;4.438;2023-02-12T03:35:58;13.57;;;12.13;;
19905;SDS011;10115;50.906;4.438;2023-02-12T03:41:08;14.03;;;12.43;;
19905;SDS011;10115;50.906;4.438;2023-02-12T03:43:45;14.13;;;12.63;;
19905;SDS011;10115;50.906;4.438;2023-02-12T03:46:27;15.13;;;13.53;;
19905;SDS011;10115;50.906;4.438;2023-02-12T03:49:09;16.90;;;12.70;;
19905;SDS011;10115;50.906;4.438;2023-02-12T03:51:46;14.17;;;11.83;;
19905;SDS011;10115;50.906;4.438;2023-02-12T03:54:14;15.93;;;12.20;;
19905;SDS011;10115;50.906;4.438;2023-02-12T03:56:46;18.10;;;13.40;;
19905;SDS011;10115;50.906;4.438;2023-02-12T03:59:20;19.87;;;13.70;;
19905;SDS011;10115;50.906;4.438;2023-02-12T04:01:47;17.33;;;12.77;;
19905;SDS011;10115;50.906;4.438;2023-02-12T04:04:18;16.43;;;12.10;;
19905;SDS011;10115;50.906;4.438;2023-02-12T04:06:45;16.53;;;12.50;;
19905;SDS011;10115;50.906;4.438;2023-02-12T04:09:13;13.77;;;11.47;;
19905;SDS011;10115;50.906;4.438;2023-02-12T04:11:53;17.60;;;12.73;;
19905;SDS011;10115;50.906;4.438;2023-02-12T04:28:13;17.47;;;12.50;;
19905;SDS011;10115;50.906;4.438;2023-02-12T04:31:00;16.77;;;13.00;;
19905;SDS011;10115;50.906;4.438;2023-02-12T04:33:34;13.80;;;11.20;;
19905;SDS011;10115;50.906;4.438;2023-02-12T04:36:12;17.63;;;13.03;;
19905;SDS011;10115;50.906;4.438;2023-02-12T04:38:46;15.83;;;12.23;;
19905;SDS011;10115;50.906;4.438;2023-02-12T04:41:17;18.23;;;12.90;;
19905;SDS011;10115;50.906;4.438;2023-02-12T04:43:43;16.60;;;12.40;;
19905;SDS011;10115;50.906;4.438;2023-02-12T04:46:08;16.03;;;12.23;;
19905;SDS011;10115;50.906;4.438;2023-02-12T04:48:36;18.60;;;13.77;;
19905;SDS011;10115;50.906;4.438;2023-02-12T04:51:08;18.43;;;12.53;;
19905;SDS011;10115;50.906;4.438;2023-02-12T04:53:34;24.20;;;12.60;;
19905;SDS011;10115;50.906;4.438;2023-02-12T04:55:59;14.30;;;11.87;;
19905;SDS011;10115;50.906;4.438;2023-02-12T04:58:25;13.17;;;11.77;;
19905;SDS011;10115;50.906;4.438;2023-02-12T05:00:51;15.90;;;12.07;;
19905;SDS011;10115;50.906;4.438;2023-02-12T05:03:16;14.90;;;12.07;;
19905;SDS011;10115;50.906;4.438;2023-02-12T05:05:42;14.90;;;11.40;;
19905;SDS011;10115;50.906;4.438;2023-02-12T05:08:08;15.50;;;11.80;;
19905;SDS011;10115;50.906;4.438;2023-02-12T05:10:33;17.37;;;11.97;;
19905;SDS011;10115;50.906;4.438;2023-02-12T05:12:59;24.77;;;12.23;;
19905;SDS011;10115;50.906;4.438;2023-02-12T05:15:24;13.53;;;11.43;;
19905;SDS011;10115;50.906;4.438;2023-02-12T05:17:50;18.03;;;11.73;;
19905;SDS011;10115;50.906;4.438;2023-02-12T05:20:16;21.60;;;11.97;;
19905;SDS011;10115;50.906;4.438;2023-02-12T05:22:42;17.73;;;12.43;;
19905;SDS011;10115;50.906;4.438;2023-02-12T05:25:07;19.30;;;13.03;;
19905;SDS011;10115;50.906;4.438;2023-02-12T05:27:33;13.20;;;11.30;;
19905;SDS011;10115;50.906;4.438;2023-02-12T05:29:59;16.13;;;12.87;;
19905;SDS011;10115;50.906;4.438;2023-02-12T05:32:24;13.40;;;11.23;;
19905;SDS011;10115;50.906;4.438;2023-02-12T05:34:50;19.80;;;12.43;;
19905;SDS011;10115;50.906;4.438;2023-02-12T05:37:16;17.63;;;13.27;;
19905;SDS011;10115;50.906;4.438;2023-02-12T05:39:41;18.53;;;13.37;;
19905;SDS011;10115;50.906;4.438;2023-02-12T05:42:07;16.27;;;12.17;;
19905;SDS011;10115;50.906;4.438;2023-02-12T05:44:33;14.97;;;11.90;;
19905;SDS011;10115;50.906;4.438;2023-02-12T05:46:58;16.13;;;12.77;;
19905;SDS011;10115;50.906;4.438;2023-02-12T05:49:24;14.83;;;12.03;;
19905;SDS011;10115;50.906;4.438;2023-02-12T05:51:50;15.20;;;12.87;;
19905;SDS011;10115;50.906;4.438;2023-02-12T05:54:15;15.90;;;12.30;;
19905;SDS011;10115;50.906;4.438;2023-02-12T05:56:45;13.30;;;11.43;;
19905;SDS011;10115;50.906;4.438;2023-02-12T05:59:21;13.27;;;11.60;;
19905;SDS011;10115;50.906;4.438;2023-02-12T06:01:48;14.93;;;12.07;;
19905;SDS011;10115;50.906;4.438;2023-02-12T06:04:19;15.37;;;12.40;;
19905;SDS011;10115;50.906;4.438;2023-02-12T06:06:47;17.10;;;12.47;;
19905;SDS011;10115;50.906;4.438;2023-02-12T06:09:14;14.70;;;11.97;;
19905;SDS011;10115;50.906;4.438;2023-02-12T06:11:40;15.77;;;12.73;;
19905;SDS011;10115;50.906;4.438;2023-02-12T06:14:06;16.20;;;12.63;;
19905;SDS011;10115;50.906;4.438;2023-02-12T06:16:35;12.00;;;10.53;;
19905;SDS011;10115;50.906;4.438;2023-02-12T06:19:01;12.97;;;11.67;;
19905;SDS011;10115;50.906;4.438;2023-02-12T06:21:28;19.20;;;13.13;;
19905;SDS011;10115;50.906;4.438;2023-02-12T06:23:58;17.23;;;12.57;;
19905;SDS011;10115;50.906;4.438;2023-02-12T06:26:24;19.47;;;13.23;;
19905;SDS011;10115;50.906;4.438;2023-02-12T06:28:50;15.90;;;12.00;;
19905;SDS011;10115;50.906;4.438;2023-02-12T06:33:50;17.97;;;13.37;;
19905;SDS011;10115;50.906;4.438;2023-02-12T06:36:16;17.53;;;12.30;;
19905;SDS011;10115;50.906;4.438;2023-02-12T06:38:43;16.77;;;12.67;;
19905;SDS011;10115;50.906;4.438;2023-02-12T06:41:09;16.40;;;12.60;;
19905;SDS011;10115;50.906;4.438;2023-02-12T06:43:34;17.10;;;12.50;;
19905;SDS011;10115;50.906;4.438;2023-02-12T06:46:02;14.87;;;12.53;;
19905;SDS011;10115;50.906;4.438;2023-02-12T06:48:28;15.23;;;12.00;;
19905;SDS011;10115;50.906;4.438;2023-02-12T06:50:54;18.80;;;12.30;;
19905;SDS011;10115;50.906;4.438;2023-02-12T06:53:20;14.57;;;12.03;;
19905;SDS011;10115;50.906;4.438;2023-02-12T06:55:46;16.07;;;12.37;;
19905;SDS011;10115;50.906;4.438;2023-02-12T06:58:12;16.97;;;12.53;;
19905;SDS011;10115;50.906;4.438;2023-02-12T07:00:37;15.93;;;12.27;;
19905;SDS011;10115;50.906;4.438;2023-02-12T07:03:03;16.23;;;13.33;;
19905;SDS011;10115;50.906;4.438;2023-02-12T07:05:28;17.23;;;12.23;;
19905;SDS011;10115;50.906;4.438;2023-02-12T07:07:54;18.77;;;11.60;;
19905;SDS011;10115;50.906;4.438;2023-02-12T07:10:20;19.27;;;12.67;;
19905;SDS011;10115;50.906;4.438;2023-02-12T07:12:48;14.17;;;11.57;;
19905;SDS011;10115;50.906;4.438;2023-02-12T07:15:14;16.83;;;13.87;;
19905;SDS011;10115;50.906;4.438;2023-02-12T07:17:40;18.60;;;13.20;;
19905;SDS011;10115;50.906;4.438;2023-02-12T07:20:05;15.03;;;12.03;;
19905;SDS011;10115;50.906;4.438;2023-02-12T07:22:34;19.70;;;13.60;;
19905;SDS011;10115;50.906;4.438;2023-02-12T07:25:01;17.10;;;12.37;;
19905;SDS011;10115;50.906;4.438;2023-02-12T07:27:26;19.77;;;12.57;;
19905;SDS011;10115;50.906;4.438;2023-02-12T07:29:52;17.73;;;12.83;;
19905;SDS011;10115;50.906;4.438;2023-02-12T07:32:17;14.17;;;12.50;;
19905;SDS011;10115;50.906;4.438;2023-02-12T07:34:43;13.70;;;10.90;;
19905;SDS011;10115;50.906;4.438;2023-02-12T07:37:09;19.30;;;12.47;;
19905;SDS011;10115;50.906;4.438;2023-02-12T07:39:34;17.20;;;12.13;;
19905;SDS011;10115;50.906;4.438;2023-02-12T07:42:00;16.27;;;11.67;;
19905;SDS011;10115;50.906;4.438;2023-02-12T07:44:26;20.93;;;13.47;;
19905;SDS011;10115;50.906;4.438;2023-02-12T07:46:51;20.80;;;13.13;;
19905;SDS011;10115;50.906;4.438;2023-02-12T07:49:18;16.13;;;12.73;;
19905;SDS011;10115;50.906;4.438;2023-02-12T07:51:45;18.73;;;13.80;;
19905;SDS011;10115;50.906;4.438;2023-02-12T07:54:12;17.87;;;14.27;;
19905;SDS011;10115;50.906;4.438;2023-02-12T07:56:39;16.73;;;13.10;;
19905;SDS011;10115;50.906;4.438;2023-02-12T07:59:07;24.83;;;13.53;;
19905;SDS011;10115;50.906;4.438;2023-02-12T08:01:36;19.47;;;13.60;;
19905;SDS011;10115;50.906;4.438;2023-02-12T08:04:07;18.07;;;13.70;;
19905;SDS011;10115;50.906;4.438;2023-02-12T08:06:36;19.63;;;14.17;;
19905;SDS011;10115;50.906;4.438;2023-02-12T08:09:04;23.47;;;15.20;;
19905;SDS011;10115;50.906;4.438;2023-02-12T08:11:35;19.33;;;14.00;;
19905;SDS011;10115;50.906;4.438;2023-02-12T08:14:02;21.50;;;13.83;;
19905;SDS011;10115;50.906;4.438;2023-02-12T08:16:28;19.47;;;12.40;;
19905;SDS011;10115;50.906;4.438;2023-02-12T08:18:55;22.47;;;14.17;;
19905;SDS011;10115;50.906;4.438;2023-02-12T08:21:23;25.10;;;15.00;;
19905;SDS011;10115;50.906;4.438;2023-02-12T08:23:50;25.13;;;14.80;;
19905;SDS011;10115;50.906;4.438;2023-02-12T08:26:19;20.77;;;14.13;;
19905;SDS011;10115;50.906;4.438;2023-02-12T08:28:46;21.83;;;15.43;;
19905;SDS011;10115;50.906;4.438;2023-02-12T08:31:17;21.07;;;14.80;;
19905;SDS011;10115;50.906;4.438;2023-02-12T08:33:45;22.07;;;15.00;;
19905;SDS011;10115;50.906;4.438;2023-02-12T08:36:13;21.83;;;14.83;;
19905;SDS011;10115;50.906;4.438;2023-02-12T08:38:41;21.10;;;13.70;;
19905;SDS011;10115;50.906;4.438;2023-02-12T08:41:09;17.60;;;13.37;;
19905;SDS011;10115;50.906;4.438;2023-02-12T08:43:38;19.40;;;13.13;;
19905;SDS011;10115;50.906;4.438;2023-02-12T08:46:05;21.10;;;14.63;;
19905;SDS011;10115;50.906;4.438;2023-02-12T08:48:31;19.83;;;14.20;;
19905;SDS011;10115;50.906;4.438;2023-02-12T08:51:07;16.60;;;13.00;;
19905;SDS011;10115;50.906;4.438;2023-02-12T08:53:39;16.57;;;13.20;;
19905;SDS011;10115;50.906;4.438;2023-02-12T08:56:06;20.40;;;14.67;;
19905;SDS011;10115;50.906;4.438;2023-02-12T08:58:33;15.47;;;13.10;;
19905;SDS011;10115;50.906;4.438;2023-02-12T09:01:00;16.20;;;12.43;;
19905;SDS011;10115;50.906;4.438;2023-02-12T09:03:25;21.97;;;13.03;;
19905;SDS011;10115;50.906;4.438;2023-02-12T09:05:52;17.60;;;13.27;;
19905;SDS011;10115;50.906;4.438;2023-02-12T09:08:19;16.07;;;12.77;;
19905;SDS011;10115;50.906;4.438;2023-02-12T09:10:45;18.03;;;14.27;;
19905;SDS011;10115;50.906;4.438;2023-02-12T09:13:11;19.07;;;13.13;;
19905;SDS011;10115;50.906;4.438;2023-02-12T09:15:38;18.20;;;12.53;;
19905;SDS011;10115;50.906;4.438;2023-02-12T09:18:05;25.90;;;13.47;;
19905;SDS011;10115;50.906;4.438;2023-02-12T09:20:31;18.20;;;13.83;;
19905;SDS011;10115;50.906;4.438;2023-02-12T09:22:58;19.50;;;13.07;;
19905;SDS011;10115;50.906;4.438;2023-02-12T09:25:24;19.33;;;14.30;;
19905;SDS011;10115;50.906;4.438;2023-02-12T09:27:50;22.97;;;14.73;;
19905;SDS011;10115;50.906;4.438;2023-02-12T09:30:16;16.50;;;13.10;;
19905;SDS011;10115;50.906;4.438;2023-02-12T09:32:41;19.60;;;14.70;;
19905;SDS011;10115;50.906;4.438;2023-02-12T09:35:08;16.33;;;13.10;;
19905;SDS011;10115;50.906;4.438;2023-02-12T09:37:36;20.57;;;13.20;;
19905;SDS011;10115;50.906;4.438;2023-02-12T09:40:04;18.63;;;13.83;;
19905;SDS011;10115;50.906;4.438;2023-02-12T09:42:34;17.03;;;12.03;;
19905;SDS011;10115;50.906;4.438;2023-02-12T09:45:24;12.67;;;10.97;;
19905;SDS011;10115;50.906;4.438;2023-02-12T09:50:53;17.83;;;12.53;;
19905;SDS011;10115;50.906;4.438;2023-02-12T09:53:24;17.67;;;13.17;;
19905;SDS011;10115;50.906;4.438;2023-02-12T09:55:53;15.47;;;12.30;;
19905;SDS011;10115;50.906;4.438;2023-02-12T09:58:28;17.40;;;12.60;;
19905;SDS011;10115;50.906;4.438;2023-02-12T10:00:55;17.67;;;12.43;;
19905;SDS011;10115;50.906;4.438;2023-02-12T10:03:21;19.30;;;12.47;;
19905;SDS011;10115;50.906;4.438;2023-02-12T10:05:51;17.40;;;13.00;;
19905;SDS011;10115;50.906;4.438;2023-02-12T10:16:42;18.57;;;12.43;;
19905;SDS011;10115;50.906;4.438;2023-02-12T10:24:23;18.67;;;13.93;;
19905;SDS011;10115;50.906;4.438;2023-02-12T10:27:14;21.77;;;12.87;;
19905;SDS011;10115;50.906;4.438;2023-02-12T10:29:42;17.00;;;12.10;;
19905;SDS011;10115;50.906;4.438;2023-02-12T10:32:23;17.47;;;11.43;;
19905;SDS011;10115;50.906;4.438;2023-02-12T10:34:55;15.43;;;12.40;;
19905;SDS011;10115;50.906;4.438;2023-02-12T10:37:26;21.27;;;12.63;;
19905;SDS011;10115;50.906;4.438;2023-02-12T10:40:18;17.37;;;12.20;;
19905;SDS011;10115;50.906;4.438;2023-02-12T10:42:54;16.67;;;13.20;;
19905;SDS011;10115;50.906;4.438;2023-02-12T10:45:32;18.10;;;11.40;;
19905;SDS011;10115;50.906;4.438;2023-02-12T10:48:05;15.50;;;10.93;;
19905;SDS011;10115;50.906;4.438;2023-02-12T10:50:46;16.07;;;11.10;;
19905;SDS011;10115;50.906;4.438;2023-02-12T10:56:05;17.80;;;11.43;;
19905;SDS011;10115;50.906;4.438;2023-02-12T10:58:34;14.47;;;12.03;;
19905;SDS011;10115;50.906;4.438;2023-02-12T11:01:00;15.40;;;11.37;;
19905;SDS011;10115;50.906;4.438;2023-02-12T11:03:29;20.67;;;11.27;;
19905;SDS011;10115;50.906;4.438;2023-02-12T11:06:15;16.17;;;11.53;;
19905;SDS011;10115;50.906;4.438;2023-02-12T11:08:45;17.07;;;12.63;;
19905;SDS011;10115;50.906;4.438;2023-02-12T11:11:19;18.10;;;12.00;;
19905;SDS011;10115;50.906;4.438;2023-02-12T11:13:46;16.10;;;11.00;;
19905;SDS011;10115;50.906;4.438;2023-02-12T11:16:27;22.20;;;12.40;;
19905;SDS011;10115;50.906;4.438;2023-02-12T11:19:18;21.60;;;12.00;;
19905;SDS011;10115;50.906;4.438;2023-02-12T11:21:46;14.83;;;11.57;;
19905;SDS011;10115;50.906;4.438;2023-02-12T11:27:37;16.00;;;10.83;;
19905;SDS011;10115;50.906;4.438;2023-02-12T11:29:43;15.77;;;11.60;;
19905;SDS011;10115;50.906;4.438;2023-02-12T11:32:17;19.43;;;11.90;;
19905;SDS011;10115;50.906;4.438;2023-02-12T11:35:29;14.07;;;10.57;;
19905;SDS011;10115;50.906;4.438;2023-02-12T11:37:35;14.60;;;11.07;;
19905;SDS011;10115;50.906;4.438;2023-02-12T11:40:06;16.70;;;10.93;;
19905;SDS011;10115;50.906;4.438;2023-02-12T11:42:40;14.37;;;10.07;;
19905;SDS011;10115;50.906;4.438;2023-02-12T11:45:15;14.27;;;10.93;;
19905;SDS011;10115;50.906;4.438;2023-02-12T11:47:43;17.27;;;11.60;;
19905;SDS011;10115;50.906;4.438;2023-02-12T11:50:30;14.93;;;11.30;;
19905;SDS011;10115;50.906;4.438;2023-02-12T11:53:03;13.47;;;10.57;;
19905;SDS011;10115;50.906;4.438;2023-02-12T11:55:37;13.53;;;10.63;;
19905;SDS011;10115;50.906;4.438;2023-02-12T12:00:37;14.13;;;10.40;;
19905;SDS011;10115;50.906;4.438;2023-02-12T12:14:47;14.47;;;10.67;;
19905;SDS011;10115;50.906;4.438;2023-02-12T12:17:50;16.20;;;10.70;;
19905;SDS011;10115;50.906;4.438;2023-02-12T12:21:02;16.77;;;10.87;;
19905;SDS011;10115;50.906;4.438;2023-02-12T12:23:36;14.93;;;11.00;;
19905;SDS011;10115;50.906;4.438;2023-02-12T12:26:09;13.97;;;10.50;;
19905;SDS011;10115;50.906;4.438;2023-02-12T12:28:54;14.87;;;10.47;;
19905;SDS011;10115;50.906;4.438;2023-02-12T12:31:33;10.90;;;9.43;;
19905;SDS011;10115;50.906;4.438;2023-02-12T12:34:29;15.17;;;11.10;;
19905;SDS011;10115;50.906;4.438;2023-02-12T12:45:24;14.63;;;11.40;;
19905;SDS011;10115;50.906;4.438;2023-02-12T13:02:00;18.23;;;12.23;;
19905;SDS011;10115;50.906;4.438;2023-02-12T13:04:59;15.23;;;11.47;;
19905;SDS011;10115;50.906;4.438;2023-02-12T13:10:12;13.97;;;10.77;;
19905;SDS011;10115;50.906;4.438;2023-02-12T13:18:00;19.63;;;10.93;;
19905;SDS011;10115;50.906;4.438;2023-02-12T13:23:30;12.57;;;10.30;;
19905;SDS011;10115;50.906;4.438;2023-02-12T13:26:15;20.90;;;11.50;;
19905;SDS011;10115;50.906;4.438;2023-02-12T13:29:11;14.17;;;10.70;;
19905;SDS011;10115;50.906;4.438;2023-02-12T13:31:47;12.77;;;10.73;;
19905;SDS011;10115;50.906;4.438;2023-02-12T13:34:17;11.67;;;10.47;;
19905;SDS011;10115;50.906;4.438;2023-02-12T13:36:44;25.50;;;12.03;;
19905;SDS011;10115;50.906;4.438;2023-02-12T13:39:31;17.57;;;12.50;;
19905;SDS011;10115;50.906;4.438;2023-02-12T13:42:16;19.63;;;11.73;;
19905;SDS011;10115;50.906;4.438;2023-02-12T13:44:49;18.03;;;12.50;;
19905;SDS011;10115;50.906;4.438;2023-02-12T13:47:32;14.27;;;11.60;;
19905;SDS011;10115;50.906;4.438;2023-02-12T13:53:05;16.00;;;10.93;;
19905;SDS011;10115;50.906;4.438;2023-02-12T13:55:55;16.93;;;12.70;;
19905;SDS011;10115;50.906;4.438;2023-02-12T14:01:10;15.87;;;10.93;;
19905;SDS011;10115;50.906;4.438;2023-02-12T14:03:38;17.37;;;11.83;;
19905;SDS011;10115;50.906;4.438;2023-02-12T14:08:49;20.87;;;12.00;;
19905;SDS011;10115;50.906;4.438;2023-02-12T14:11:32;17.40;;;11.40;;
19905;SDS011;10115;50.906;4.438;2023-02-12T14:14:01;14.83;;;12.03;;
19905;SDS011;10115;50.906;4.438;2023-02-12T14:22:00;16.17;;;13.33;;
19905;SDS011;10115;50.906;4.438;2023-02-12T14:27:02;14.20;;;11.60;;
19905;SDS011;10115;50.906;4.438;2023-02-12T14:29:39;18.13;;;10.80;;
19905;SDS011;10115;50.906;4.438;2023-02-12T14:33:10;17.37;;;11.77;;
19905;SDS011;10115;50.906;4.438;2023-02-12T14:41:22;15.77;;;11.03;;
19905;SDS011;10115;50.906;4.438;2023-02-12T14:46:43;17.47;;;12.87;;
19905;SDS011;10115;50.906;4.438;2023-02-12T14:49:19;15.87;;;11.40;;
19905;SDS011;10115;50.906;4.438;2023-02-12T14:51:58;19.43;;;11.30;;
19905;SDS011;10115;50.906;4.438;2023-02-12T14:54:34;15.30;;;11.43;;
19905;SDS011;10115;50.906;4.438;2023-02-12T14:57:07;14.30;;;11.70;;
19905;SDS011;10115;50.906;4.438;2023-02-12T14:59:48;14.07;;;11.17;;
19905;SDS011;10115;50.906;4.438;2023-02-12T15:02:20;13.43;;;10.40;;
19905;SDS011;10115;50.906;4.438;2023-02-12T15:04:49;15.17;;;12.43;;
19905;SDS011;10115;50.906;4.438;2023-02-12T15:07:22;18.23;;;11.87;;
19905;SDS011;10115;50.906;4.438;2023-02-12T15:09:57;15.27;;;10.63;;
19905;SDS011;10115;50.906;4.438;2023-02-12T15:12:38;17.17;;;12.73;;
19905;SDS011;10115;50.906;4.438;2023-02-12T15:16:21;17.80;;;11.17;;
19905;SDS011;10115;50.906;4.438;2023-02-12T15:18:41;18.20;;;12.53;;
19905;SDS011;10115;50.906;4.438;2023-02-12T15:21:29;17.33;;;12.77;;
19905;SDS011;10115;50.906;4.438;2023-02-12T15:26:34;20.17;;;12.67;;
19905;SDS011;10115;50.906;4.438;2023-02-12T15:29:05;16.07;;;11.63;;
19905;SDS011;10115;50.906;4.438;2023-02-12T15:31:38;18.70;;;12.13;;
19905;SDS011;10115;50.906;4.438;2023-02-12T15:34:05;19.27;;;13.77;;
19905;SDS011;10115;50.906;4.438;2023-02-12T15:36:31;19.97;;;12.53;;
19905;SDS011;10115;50.906;4.438;2023-02-12T15:39:02;17.80;;;12.47;;
19905;SDS011;10115;50.906;4.438;2023-02-12T15:47:12;30.57;;;16.20;;
19905;SDS011;10115;50.906;4.438;2023-02-12T15:49:41;23.10;;;13.17;;
19905;SDS011;10115;50.906;4.438;2023-02-12T15:52:18;19.40;;;12.83;;
19905;SDS011;10115;50.906;4.438;2023-02-12T15:54:48;23.77;;;12.93;;
19905;SDS011;10115;50.906;4.438;2023-02-12T15:57:22;18.53;;;13.00;;
19905;SDS011;10115;50.906;4.438;2023-02-12T15:59:49;20.23;;;13.57;;
19905;SDS011;10115;50.906;4.438;2023-02-12T16:02:34;20.60;;;13.50;;
19905;SDS011;10115;50.906;4.438;2023-02-12T16:05:01;24.10;;;14.07;;
19905;SDS011;10115;50.906;4.438;2023-02-12T16:07:30;17.43;;;11.77;;
19905;SDS011;10115;50.906;4.438;2023-02-12T16:10:00;16.87;;;11.17;;
19905;SDS011;10115;50.906;4.438;2023-02-12T16:12:28;18.07;;;12.43;;
19905;SDS011;10115;50.906;4.438;2023-02-12T16:14:57;16.10;;;11.97;;
19905;SDS011;10115;50.906;4.438;2023-02-12T16:17:28;15.13;;;12.00;;
19905;SDS011;10115;50.906;4.438;2023-02-12T16:19:59;19.33;;;12.17;;
19905;SDS011;10115;50.906;4.438;2023-02-12T16:22:43;15.60;;;12.57;;
19905;SDS011;10115;50.906;4.438;2023-02-12T16:25:12;20.63;;;12.37;;
19905;SDS011;10115;50.906;4.438;2023-02-12T16:27:41;18.80;;;11.37;;
19905;SDS011;10115;50.906;4.438;2023-02-12T16:30:34;18.67;;;12.37;;
19905;SDS011;10115;50.906;4.438;2023-02-12T16:33:03;14.23;;;11.77;;
19905;SDS011;10115;50.906;4.438;2023-02-12T16:35:59;22.57;;;14.63;;
19905;SDS011;10115;50.906;4.438;2023-02-12T16:46:50;17.93;;;12.17;;
19905;SDS011;10115;50.906;4.438;2023-02-12T16:49:20;19.23;;;13.40;;
19905;SDS011;10115;50.906;4.438;2023-02-12T16:51:47;17.30;;;12.10;;
19905;SDS011;10115;50.906;4.438;2023-02-12T16:54:27;26.20;;;15.20;;
19905;SDS011;10115;50.906;4.438;2023-02-12T16:56:55;20.03;;;13.33;;
19905;SDS011;10115;50.906;4.438;2023-02-12T16:59:21;24.13;;;14.67;;
19905;SDS011;10115;50.906;4.438;2023-02-12T17:01:57;21.70;;;14.20;;
19905;SDS011;10115;50.906;4.438;2023-02-12T17:04:30;18.83;;;13.60;;
19905;SDS011;10115;50.906;4.438;2023-02-12T17:06:56;28.13;;;14.57;;
19905;SDS011;10115;50.906;4.438;2023-02-12T17:09:22;19.80;;;14.20;;
19905;SDS011;10115;50.906;4.438;2023-02-12T17:11:48;24.30;;;15.60;;